TimeCDT,TemperatureF,Dew PointF,Humidity,Sea Level PressureIn,VisibilityMPH,Wind Direction,Wind SpeedMPH,Gust SpeedMPH,PrecipitationIn,Events,Conditions,WindDirDegrees,DateUTC
12:15 AM,78.3,70.7,77,30.29,10.0,SW,4.6,-,N/A,,Clear,230,2013-07-17 05:15:00
12:35 AM,77.9,70.2,77,30.29,10.0,SW,4.6,-,N/A,,Clear,220,2013-07-17 05:35:00
12:55 AM,77.9,70.2,77,30.30,10.0,SW,3.5,-,N/A,,Clear,230,2013-07-17 05:55:00
1:15 AM,77.9,70.5,78,30.30,10.0,SW,5.8,-,N/A,,Clear,220,2013-07-17 06:15:00
1:35 AM,77.0,70.0,79,30.30,10.0,WSW,3.5,-,N/A,,Clear,250,2013-07-17 06:35:00
1:55 AM,77.0,70.2,79,30.30,10.0,Calm,Calm,-,N/A,,Clear,0,2013-07-17 06:55:00
2:15 AM,75.9,70.0,82,30.30,10.0,Calm,Calm,-,N/A,,Clear,0,2013-07-17 07:15:00
2:35 AM,75.4,69.8,83,30.30,10.0,Calm,Calm,-,N/A,,Clear,0,2013-07-17 07:35:00
2:55 AM,75.4,70.0,83,30.30,10.0,Calm,Calm,-,N/A,,Clear,0,2013-07-17 07:55:00
3:15 AM,75.2,70.5,85,30.30,10.0,Calm,Calm,-,N/A,,Clear,0,2013-07-17 08:15:00
3:35 AM,75.6,70.7,85,30.30,10.0,Calm,Calm,-,N/A,,Clear,0,2013-07-17 08:35:00
3:55 AM,75.2,70.7,86,30.30,10.0,SSW,3.5,-,N/A,,Clear,200,2013-07-17 08:55:00
4:15 AM,74.5,70.5,87,30.30,10.0,SSW,3.5,-,N/A,,Clear,200,2013-07-17 09:15:00
4:35 AM,73.0,69.8,90,30.31,10.0,SSW,4.6,-,N/A,,Clear,210,2013-07-17 09:35:00
4:55 AM,73.0,69.8,90,30.31,10.0,Calm,Calm,-,N/A,,Clear,0,2013-07-17 09:55:00
5:15 AM,73.8,70.9,91,30.31,10.0,Calm,Calm,-,N/A,,Clear,0,2013-07-17 10:15:00
5:35 AM,73.9,71.1,91,30.32,7.0,Calm,Calm,-,N/A,,Clear,0,2013-07-17 10:35:00
5:55 AM,74.3,70.9,89,30.32,10.0,Calm,Calm,-,N/A,,Clear,0,2013-07-17 10:55:00
6:15 AM,75.0,71.8,90,30.32,7.0,Calm,Calm,-,N/A,,Clear,0,2013-07-17 11:15:00
6:35 AM,75.2,71.4,88,30.32,7.0,Calm,Calm,-,N/A,,Clear,0,2013-07-17 11:35:00
6:55 AM,75.2,71.6,89,30.33,7.0,Calm,Calm,-,N/A,,Clear,0,2013-07-17 11:55:00
7:15 AM,76.6,72.1,86,30.33,10.0,Calm,Calm,-,N/A,,Clear,0,2013-07-17 12:15:00
7:35 AM,78.4,72.1,81,30.33,10.0,SW,3.5,-,N/A,,Clear,220,2013-07-17 12:35:00
7:55 AM,80.2,72.9,78,30.34,10.0,Calm,Calm,-,N/A,,Clear,0,2013-07-17 12:55:00
8:15 AM,80.6,72.5,76,30.34,10.0,Calm,Calm,-,N/A,,Clear,0,2013-07-17 13:15:00
8:35 AM,81.5,73.0,75,30.34,10.0,Calm,Calm,-,N/A,,Clear,0,2013-07-17 13:35:00
8:55 AM,82.9,72.5,71,30.34,10.0,WSW,4.6,-,N/A,,Clear,240,2013-07-17 13:55:00
9:15 AM,84.0,72.9,69,30.33,10.0,West,3.5,-,N/A,,Clear,260,2013-07-17 14:15:00
9:35 AM,84.9,72.5,66,30.33,10.0,West,3.5,-,N/A,,Clear,270,2013-07-17 14:35:00
9:55 AM,85.5,72.3,65,30.33,10.0,WNW,3.5,-,N/A,,Clear,290,2013-07-17 14:55:00
10:15 AM,85.6,72.0,63,30.33,10.0,Calm,Calm,-,N/A,,Clear,0,2013-07-17 15:15:00
10:35 AM,86.2,73.4,66,30.33,10.0,WNW,5.8,-,N/A,,Clear,300,2013-07-17 15:35:00
10:55 AM,86.5,73.0,64,30.33,10.0,WNW,4.6,-,N/A,,Clear,300,2013-07-17 15:55:00
11:15 AM,87.3,72.3,61,30.32,10.0,West,3.5,-,N/A,,Scattered Clouds,270,2013-07-17 16:15:00
11:35 AM,88.0,72.7,60,30.32,10.0,SW,4.6,-,N/A,,Scattered Clouds,230,2013-07-17 16:35:00
11:55 AM,88.5,71.1,56,30.31,10.0,West,4.6,-,N/A,,Scattered Clouds,280,2013-07-17 16:55:00
12:15 PM,88.7,71.8,57,30.31,10.0,WNW,3.5,-,N/A,,Scattered Clouds,300,2013-07-17 17:15:00
12:35 PM,88.7,71.6,57,30.31,10.0,Calm,Calm,-,N/A,,Mostly Cloudy,0,2013-07-17 17:35:00
12:55 PM,90.7,71.6,53,30.30,10.0,SW,5.8,-,N/A,,Mostly Cloudy,230,2013-07-17 17:55:00
1:15 PM,90.1,72.1,55,30.30,10.0,WSW,4.6,-,N/A,,Scattered Clouds,250,2013-07-17 18:15:00
1:35 PM,90.0,71.4,54,30.29,10.0,WSW,5.8,-,N/A,,Clear,240,2013-07-17 18:35:00
1:55 PM,91.0,70.2,50,30.28,10.0,SSW,4.6,-,N/A,,Clear,210,2013-07-17 18:55:00
2:15 PM,90.5,70.9,52,30.28,10.0,SW,6.9,-,N/A,,Clear,220,2013-07-17 19:15:00
2:35 PM,90.7,70.2,51,30.27,10.0,South,4.6,-,N/A,,Scattered Clouds,190,2013-07-17 19:35:00
2:55 PM,91.4,70.7,51,30.26,10.0,SW,3.5,-,N/A,,Scattered Clouds,230,2013-07-17 19:55:00
3:15 PM,91.4,70.9,51,30.26,10.0,SW,3.5,-,N/A,,Mostly Cloudy,220,2013-07-17 20:15:00
3:35 PM,91.6,70.5,50,30.25,10.0,SW,8.1,-,N/A,,Scattered Clouds,220,2013-07-17 20:35:00
3:55 PM,92.1,69.6,48,30.25,10.0,WSW,4.6,-,N/A,,Clear,240,2013-07-17 20:55:00
4:15 PM,91.9,70.0,48,30.24,10.0,WSW,5.8,-,N/A,,Scattered Clouds,250,2013-07-17 21:15:00
4:35 PM,92.1,70.9,50,30.24,10.0,SW,5.8,-,N/A,,Scattered Clouds,230,2013-07-17 21:35:00
4:55 PM,91.0,71.6,53,30.23,10.0,SW,4.6,-,N/A,,Clear,230,2013-07-17 21:55:00
5:15 PM,91.8,71.4,51,30.23,10.0,WSW,4.6,-,N/A,,Clear,250,2013-07-17 22:15:00
5:35 PM,91.8,71.1,51,30.22,10.0,SW,6.9,-,N/A,,Clear,220,2013-07-17 22:35:00
5:55 PM,91.8,70.9,50,30.21,10.0,SW,6.9,-,N/A,,Clear,220,2013-07-17 22:55:00
6:15 PM,91.0,71.1,52,30.21,10.0,WSW,5.8,-,N/A,,Clear,250,2013-07-17 23:15:00
6:35 PM,90.0,71.6,55,30.21,10.0,West,5.8,-,N/A,,Clear,270,2013-07-17 23:35:00
6:55 PM,89.2,72.0,57,30.20,10.0,West,3.5,-,N/A,,Clear,270,2013-07-17 23:55:00
7:15 PM,88.7,72.9,59,30.20,7.0,West,4.6,-,N/A,,Clear,260,2013-07-18 00:15:00
7:35 PM,88.0,73.6,62,30.20,10.0,West,3.5,-,N/A,,Clear,260,2013-07-18 00:35:00
7:55 PM,86.9,73.4,64,30.20,10.0,WSW,3.5,-,N/A,,Clear,250,2013-07-18 00:55:00
8:15 PM,86.0,73.4,66,30.19,10.0,Calm,Calm,-,N/A,,Clear,0,2013-07-18 01:15:00
8:35 PM,85.3,73.0,67,30.20,10.0,West,4.6,-,N/A,,Clear,270,2013-07-18 01:35:00
8:55 PM,84.4,73.0,69,30.20,10.0,Calm,Calm,-,N/A,,Clear,0,2013-07-18 01:55:00
9:15 PM,84.4,72.1,67,30.20,10.0,SW,3.5,-,N/A,,Clear,220,2013-07-18 02:15:00
9:35 PM,83.5,72.9,70,30.21,10.0,SW,3.5,-,N/A,,Clear,230,2013-07-18 02:35:00
9:55 PM,83.1,72.7,71,30.21,10.0,SW,4.6,-,N/A,,Clear,230,2013-07-18 02:55:00
10:15 PM,82.4,72.7,72,30.21,10.0,SW,5.8,-,N/A,,Clear,230,2013-07-18 03:15:00
10:35 PM,81.3,72.7,75,30.21,10.0,SW,5.8,-,N/A,,Clear,220,2013-07-18 03:35:00
10:55 PM,80.2,72.5,77,30.21,10.0,WSW,4.6,-,N/A,,Clear,240,2013-07-18 03:55:00
11:15 PM,80.4,72.3,76,30.21,10.0,WSW,4.6,-,N/A,,Clear,240,2013-07-18 04:15:00
11:35 PM,80.2,72.9,78,30.21,10.0,Calm,Calm,-,N/A,,Clear,0,2013-07-18 04:35:00
11:55 PM,80.6,72.5,76,30.21,10.0,WSW,3.5,-,N/A,,Clear,240,2013-07-18 04:55:00